sensor_id;sensor_type;location;lat;lon;timestamp;P1;durP1;ratioP1;P2;durP2;ratioP2
67595;SDS011;54410;48.694;8.934;2023-07-24T00:00:04;8.57;;;6.18;;
67595;SDS011;54410;48.694;8.934;2023-07-24T00:02:30;9.15;;;5.70;;
67595;SDS011;54410;48.694;8.934;2023-07-24T00:04:56;9.93;;;6.68;;
67595;SDS011;54410;48.694;8.934;2023-07-24T00:07:22;8.73;;;6.53;;
67595;SDS011;54410;48.694;8.934;2023-07-24T00:09:48;8.15;;;5.90;;
67595;SDS011;54410;48.694;8.934;2023-07-24T00:12:14;9.27;;;6.65;;
67595;SDS011;54410;48.694;8.934;2023-07-24T00:14:40;7.45;;;6.03;;
67595;SDS011;54410;48.694;8.934;2023-07-24T00:17:06;8.13;;;5.88;;
67595;SDS011;54410;48.694;8.934;2023-07-24T00:19:32;8.30;;;5.90;;
67595;SDS011;54410;48.694;8.934;2023-07-24T00:21:58;8.93;;;6.18;;
67595;SDS011;54410;48.694;8.934;2023-07-24T00:24:23;11.45;;;6.60;;
67595;SDS011;54410;48.694;8.934;2023-07-24T00:26:49;9.98;;;6.78;;
67595;SDS011;54410;48.694;8.934;2023-07-24T00:29:15;9.27;;;6.38;;
67595;SDS011;54410;48.694;8.934;2023-07-24T00:31:41;10.77;;;6.95;;
67595;SDS011;54410;48.694;8.934;2023-07-24T00:34:06;7.75;;;5.55;;
67595;SDS011;54410;48.694;8.934;2023-07-24T00:36:32;9.25;;;6.40;;
67595;SDS011;54410;48.694;8.934;2023-07-24T00:38:58;13.18;;;6.32;;
67595;SDS011;54410;48.694;8.934;2023-07-24T00:41:24;9.32;;;5.90;;
67595;SDS011;54410;48.694;8.934;2023-07-24T00:43:50;8.73;;;6.18;;
67595;SDS011;54410;48.694;8.934;2023-07-24T00:46:16;9.63;;;6.38;;
67595;SDS011;54410;48.694;8.934;2023-07-24T00:48:42;10.85;;;6.90;;
67595;SDS011;54410;48.694;8.934;2023-07-24T00:51:08;8.15;;;6.00;;
67595;SDS011;54410;48.694;8.934;2023-07-24T00:53:35;9.68;;;6.10;;
67595;SDS011;54410;48.694;8.934;2023-07-24T00:56:01;10.75;;;6.75;;
67595;SDS011;54410;48.694;8.934;2023-07-24T00:58:27;10.45;;;6.53;;
67595;SDS011;54410;48.694;8.934;2023-07-24T01:00:53;7.93;;;5.70;;
67595;SDS011;54410;48.694;8.934;2023-07-24T01:03:19;8.85;;;6.05;;
67595;SDS011;54410;48.694;8.934;2023-07-24T01:05:47;10.15;;;6.45;;
67595;SDS011;54410;48.694;8.934;2023-07-24T01:08:12;9.65;;;6.63;;
67595;SDS011;54410;48.694;8.934;2023-07-24T01:10:38;8.85;;;6.60;;
67595;SDS011;54410;48.694;8.934;2023-07-24T01:13:14;8.82;;;6.78;;
67595;SDS011;54410;48.694;8.934;2023-07-24T01:15:44;8.45;;;5.85;;
67595;SDS011;54410;48.694;8.934;2023-07-24T01:18:13;10.02;;;6.25;;
67595;SDS011;54410;48.694;8.934;2023-07-24T01:20:42;10.38;;;6.03;;
67595;SDS011;54410;48.694;8.934;2023-07-24T01:23:17;11.30;;;6.75;;
67595;SDS011;54410;48.694;8.934;2023-07-24T01:26:05;9.40;;;6.55;;
67595;SDS011;54410;48.694;8.934;2023-07-24T01:28:51;10.07;;;6.72;;
67595;SDS011;54410;48.694;8.934;2023-07-24T01:31:16;8.43;;;5.78;;
67595;SDS011;54410;48.694;8.934;2023-07-24T01:33:43;9.18;;;6.25;;
67595;SDS011;54410;48.694;8.934;2023-07-24T01:36:09;13.73;;;7.10;;
67595;SDS011;54410;48.694;8.934;2023-07-24T01:38:35;10.73;;;6.25;;
67595;SDS011;54410;48.694;8.934;2023-07-24T01:41:05;11.38;;;6.75;;
67595;SDS011;54410;48.694;8.934;2023-07-24T01:43:31;10.30;;;6.90;;
67595;SDS011;54410;48.694;8.934;2023-07-24T01:45:57;12.75;;;6.97;;
67595;SDS011;54410;48.694;8.934;2023-07-24T01:48:23;9.20;;;5.90;;
67595;SDS011;54410;48.694;8.934;2023-07-24T01:50:49;8.88;;;6.10;;
67595;SDS011;54410;48.694;8.934;2023-07-24T01:53:15;11.00;;;6.93;;
67595;SDS011;54410;48.694;8.934;2023-07-24T01:55:41;7.65;;;5.93;;
67595;SDS011;54410;48.694;8.934;2023-07-24T01:58:07;9.00;;;6.13;;
67595;SDS011;54410;48.694;8.934;2023-07-24T02:00:33;11.20;;;7.32;;
67595;SDS011;54410;48.694;8.934;2023-07-24T02:02:59;9.90;;;6.75;;
67595;SDS011;54410;48.694;8.934;2023-07-24T02:05:25;9.23;;;6.80;;
67595;SDS011;54410;48.694;8.934;2023-07-24T02:07:51;11.15;;;7.05;;
67595;SDS011;54410;48.694;8.934;2023-07-24T02:10:17;10.40;;;6.60;;
67595;SDS011;54410;48.694;8.934;2023-07-24T02:12:43;8.70;;;6.40;;
67595;SDS011;54410;48.694;8.934;2023-07-24T02:15:09;10.40;;;6.80;;
67595;SDS011;54410;48.694;8.934;2023-07-24T02:17:35;9.70;;;5.95;;
67595;SDS011;54410;48.694;8.934;2023-07-24T02:20:02;9.38;;;6.47;;
67595;SDS011;54410;48.694;8.934;2023-07-24T02:22:28;10.65;;;6.75;;
67595;SDS011;54410;48.694;8.934;2023-07-24T02:24:53;10.88;;;7.00;;
67595;SDS011;54410;48.694;8.934;2023-07-24T02:27:26;9.98;;;6.63;;
67595;SDS011;54410;48.694;8.934;2023-07-24T02:29:52;10.18;;;6.85;;
67595;SDS011;54410;48.694;8.934;2023-07-24T02:32:19;12.45;;;7.30;;
67595;SDS011;54410;48.694;8.934;2023-07-24T02:34:48;8.77;;;6.50;;
67595;SDS011;54410;48.694;8.934;2023-07-24T02:37:14;9.80;;;6.88;;
67595;SDS011;54410;48.694;8.934;2023-07-24T02:39:40;8.65;;;6.40;;
67595;SDS011;54410;48.694;8.934;2023-07-24T02:42:06;10.50;;;7.10;;
67595;SDS011;54410;48.694;8.934;2023-07-24T02:44:33;9.73;;;7.00;;
67595;SDS011;54410;48.694;8.934;2023-07-24T02:46:59;10.13;;;6.82;;
67595;SDS011;54410;48.694;8.934;2023-07-24T02:49:24;9.43;;;6.80;;
67595;SDS011;54410;48.694;8.934;2023-07-24T02:51:50;12.25;;;6.90;;
67595;SDS011;54410;48.694;8.934;2023-07-24T02:54:16;9.02;;;6.18;;
67595;SDS011;54410;48.694;8.934;2023-07-24T02:56:42;11.27;;;7.80;;
67595;SDS011;54410;48.694;8.934;2023-07-24T02:59:08;8.43;;;6.32;;
67595;SDS011;54410;48.694;8.934;2023-07-24T03:01:34;9.85;;;6.88;;
67595;SDS011;54410;48.694;8.934;2023-07-24T03:04:00;11.57;;;6.85;;
67595;SDS011;54410;48.694;8.934;2023-07-24T03:06:27;10.02;;;7.07;;
67595;SDS011;54410;48.694;8.934;2023-07-24T03:08:52;10.50;;;5.90;;
67595;SDS011;54410;48.694;8.934;2023-07-24T03:11:18;9.00;;;6.57;;
67595;SDS011;54410;48.694;8.934;2023-07-24T03:13:46;10.32;;;7.72;;
67595;SDS011;54410;48.694;8.934;2023-07-24T03:16:11;9.32;;;6.85;;
67595;SDS011;54410;48.694;8.934;2023-07-24T03:18:37;10.30;;;6.95;;
67595;SDS011;54410;48.694;8.934;2023-07-24T03:21:03;11.45;;;6.93;;
67595;SDS011;54410;48.694;8.934;2023-07-24T03:23:29;10.05;;;7.05;;
67595;SDS011;54410;48.694;8.934;2023-07-24T03:25:55;10.25;;;7.15;;
67595;SDS011;54410;48.694;8.934;2023-07-24T03:28:21;9.38;;;6.80;;
67595;SDS011;54410;48.694;8.934;2023-07-24T03:30:47;14.32;;;7.47;;
67595;SDS011;54410;48.694;8.934;2023-07-24T03:33:25;10.45;;;6.82;;
67595;SDS011;54410;48.694;8.934;2023-07-24T03:35:50;10.02;;;6.93;;
67595;SDS011;54410;48.694;8.934;2023-07-24T03:38:16;10.15;;;6.47;;
67595;SDS011;54410;48.694;8.934;2023-07-24T03:40:42;10.75;;;6.15;;
67595;SDS011;54410;48.694;8.934;2023-07-24T03:43:08;9.05;;;6.38;;
67595;SDS011;54410;48.694;8.934;2023-07-24T03:45:34;8.52;;;6.85;;
67595;SDS011;54410;48.694;8.934;2023-07-24T03:48:00;10.52;;;6.85;;
67595;SDS011;54410;48.694;8.934;2023-07-24T03:50:26;9.40;;;6.47;;
67595;SDS011;54410;48.694;8.934;2023-07-24T03:52:52;11.43;;;8.02;;
67595;SDS011;54410;48.694;8.934;2023-07-24T03:55:18;12.35;;;7.00;;
67595;SDS011;54410;48.694;8.934;2023-07-24T03:57:43;11.45;;;7.05;;
67595;SDS011;54410;48.694;8.934;2023-07-24T04:00:10;9.50;;;7.05;;
67595;SDS011;54410;48.694;8.934;2023-07-24T04:02:36;11.18;;;6.65;;
67595;SDS011;54410;48.694;8.934;2023-07-24T04:05:02;13.35;;;6.93;;
67595;SDS011;54410;48.694;8.934;2023-07-24T04:07:28;9.95;;;6.72;;
67595;SDS011;54410;48.694;8.934;2023-07-24T04:09:54;10.98;;;6.80;;
67595;SDS011;54410;48.694;8.934;2023-07-24T04:12:20;9.77;;;7.05;;
67595;SDS011;54410;48.694;8.934;2023-07-24T04:14:46;11.25;;;7.30;;
67595;SDS011;54410;48.694;8.934;2023-07-24T04:17:13;11.93;;;6.20;;
67595;SDS011;54410;48.694;8.934;2023-07-24T04:19:40;10.88;;;6.63;;
67595;SDS011;54410;48.694;8.934;2023-07-24T04:22:06;9.30;;;6.50;;
67595;SDS011;54410;48.694;8.934;2023-07-24T04:24:31;10.00;;;7.03;;
67595;SDS011;54410;48.694;8.934;2023-07-24T04:26:57;9.10;;;6.63;;
67595;SDS011;54410;48.694;8.934;2023-07-24T04:29:23;13.35;;;6.70;;
67595;SDS011;54410;48.694;8.934;2023-07-24T04:31:50;10.93;;;7.05;;
67595;SDS011;54410;48.694;8.934;2023-07-24T04:34:16;9.50;;;6.22;;
67595;SDS011;54410;48.694;8.934;2023-07-24T04:36:43;8.65;;;6.15;;
67595;SDS011;54410;48.694;8.934;2023-07-24T04:39:08;8.85;;;6.95;;
67595;SDS011;54410;48.694;8.934;2023-07-24T04:41:34;9.80;;;7.03;;
67595;SDS011;54410;48.694;8.934;2023-07-24T04:44:00;9.90;;;6.32;;
67595;SDS011;54410;48.694;8.934;2023-07-24T04:46:26;11.30;;;6.38;;
67595;SDS011;54410;48.694;8.934;2023-07-24T04:48:52;10.23;;;7.13;;
67595;SDS011;54410;48.694;8.934;2023-07-24T04:51:18;10.88;;;6.78;;
67595;SDS011;54410;48.694;8.934;2023-07-24T04:53:44;10.52;;;6.25;;
67595;SDS011;54410;48.694;8.934;2023-07-24T04:56:10;8.45;;;5.72;;
67595;SDS011;54410;48.694;8.934;2023-07-24T04:58:36;10.32;;;6.57;;
67595;SDS011;54410;48.694;8.934;2023-07-24T05:01:02;9.57;;;6.95;;
67595;SDS011;54410;48.694;8.934;2023-07-24T05:03:29;11.35;;;6.45;;
67595;SDS011;54410;48.694;8.934;2023-07-24T05:05:55;9.60;;;6.43;;
67595;SDS011;54410;48.694;8.934;2023-07-24T05:08:21;8.85;;;5.97;;
67595;SDS011;54410;48.694;8.934;2023-07-24T05:10:47;8.23;;;6.18;;
67595;SDS011;54410;48.694;8.934;2023-07-24T05:13:13;11.23;;;6.82;;
67595;SDS011;54410;48.694;8.934;2023-07-24T05:15:38;10.02;;;6.38;;
67595;SDS011;54410;48.694;8.934;2023-07-24T05:18:04;11.07;;;7.00;;
67595;SDS011;54410;48.694;8.934;2023-07-24T05:20:30;8.65;;;6.70;;
67595;SDS011;54410;48.694;8.934;2023-07-24T05:22:56;10.68;;;6.63;;
67595;SDS011;54410;48.694;8.934;2023-07-24T05:25:22;8.60;;;5.93;;
67595;SDS011;54410;48.694;8.934;2023-07-24T05:27:48;11.60;;;6.15;;
67595;SDS011;54410;48.694;8.934;2023-07-24T05:30:14;12.00;;;6.35;;
67595;SDS011;54410;48.694;8.934;2023-07-24T05:32:40;9.40;;;6.32;;
67595;SDS011;54410;48.694;8.934;2023-07-24T05:35:06;10.65;;;6.57;;
67595;SDS011;54410;48.694;8.934;2023-07-24T05:37:32;9.93;;;6.53;;
67595;SDS011;54410;48.694;8.934;2023-07-24T05:39:58;8.90;;;6.15;;
67595;SDS011;54410;48.694;8.934;2023-07-24T05:42:24;10.63;;;6.78;;
67595;SDS011;54410;48.694;8.934;2023-07-24T05:44:50;11.45;;;7.03;;
67595;SDS011;54410;48.694;8.934;2023-07-24T05:47:16;11.75;;;6.90;;
67595;SDS011;54410;48.694;8.934;2023-07-24T05:49:42;10.43;;;6.72;;
67595;SDS011;54410;48.694;8.934;2023-07-24T05:52:08;14.13;;;7.10;;
67595;SDS011;54410;48.694;8.934;2023-07-24T05:54:34;9.07;;;7.00;;
67595;SDS011;54410;48.694;8.934;2023-07-24T05:57:00;11.55;;;7.03;;
67595;SDS011;54410;48.694;8.934;2023-07-24T05:59:25;11.27;;;6.68;;
67595;SDS011;54410;48.694;8.934;2023-07-24T06:01:51;11.88;;;6.93;;
67595;SDS011;54410;48.694;8.934;2023-07-24T06:04:17;10.73;;;6.75;;
67595;SDS011;54410;48.694;8.934;2023-07-24T06:06:43;10.90;;;6.88;;
67595;SDS011;54410;48.694;8.934;2023-07-24T06:09:09;9.75;;;6.55;;
67595;SDS011;54410;48.694;8.934;2023-07-24T06:11:35;9.63;;;7.13;;
67595;SDS011;54410;48.694;8.934;2023-07-24T06:14:01;14.23;;;6.88;;
67595;SDS011;54410;48.694;8.934;2023-07-24T06:16:27;10.20;;;7.20;;
67595;SDS011;54410;48.694;8.934;2023-07-24T06:18:53;8.40;;;6.18;;
67595;SDS011;54410;48.694;8.934;2023-07-24T06:21:18;9.20;;;6.95;;
67595;SDS011;54410;48.694;8.934;2023-07-24T06:23:44;12.60;;;8.18;;
67595;SDS011;54410;48.694;8.934;2023-07-24T06:26:10;8.93;;;6.95;;
67595;SDS011;54410;48.694;8.934;2023-07-24T06:28:35;11.98;;;8.82;;
67595;SDS011;54410;48.694;8.934;2023-07-24T06:31:01;11.07;;;8.98;;
67595;SDS011;54410;48.694;8.934;2023-07-24T06:33:27;13.25;;;12.15;;
67595;SDS011;54410;48.694;8.934;2023-07-24T06:35:53;18.08;;;16.63;;
67595;SDS011;54410;48.694;8.934;2023-07-24T06:38:19;19.08;;;17.58;;
67595;SDS011;54410;48.694;8.934;2023-07-24T06:40:46;18.27;;;16.95;;
67595;SDS011;54410;48.694;8.934;2023-07-24T06:43:12;13.57;;;12.45;;
67595;SDS011;54410;48.694;8.934;2023-07-24T06:45:38;18.40;;;16.63;;
67595;SDS011;54410;48.694;8.934;2023-07-24T06:48:04;16.50;;;15.27;;
67595;SDS011;54410;48.694;8.934;2023-07-24T06:50:30;17.15;;;13.07;;
67595;SDS011;54410;48.694;8.934;2023-07-24T06:52:56;18.63;;;17.10;;
67595;SDS011;54410;48.694;8.934;2023-07-24T06:55:22;34.22;;;31.52;;
67595;SDS011;54410;48.694;8.934;2023-07-24T06:57:48;34.22;;;32.00;;
67595;SDS011;54410;48.694;8.934;2023-07-24T07:00:14;151.05;;;142.05;;
67595;SDS011;54410;48.694;8.934;2023-07-24T07:02:40;171.90;;;162.90;;
67595;SDS011;54410;48.694;8.934;2023-07-24T07:05:06;153.52;;;144.75;;
67595;SDS011;54410;48.694;8.934;2023-07-24T07:07:32;141.60;;;133.77;;
67595;SDS011;54410;48.694;8.934;2023-07-24T07:09:58;88.05;;;81.43;;
67595;SDS011;54410;48.694;8.934;2023-07-24T07:12:23;82.18;;;77.47;;
67595;SDS011;54410;48.694;8.934;2023-07-24T07:14:49;46.25;;;42.53;;
67595;SDS011;54410;48.694;8.934;2023-07-24T07:17:15;107.32;;;98.95;;
67595;SDS011;54410;48.694;8.934;2023-07-24T07:19:41;20.35;;;18.30;;
67595;SDS011;54410;48.694;8.934;2023-07-24T07:22:07;34.40;;;31.65;;
67595;SDS011;54410;48.694;8.934;2023-07-24T07:24:33;89.45;;;83.57;;
67595;SDS011;54410;48.694;8.934;2023-07-24T07:26:59;189.88;;;177.02;;
67595;SDS011;54410;48.694;8.934;2023-07-24T07:29:25;208.88;;;196.27;;
67595;SDS011;54410;48.694;8.934;2023-07-24T07:31:50;189.63;;;175.77;;
67595;SDS011;54410;48.694;8.934;2023-07-24T07:34:16;252.15;;;234.48;;
67595;SDS011;54410;48.694;8.934;2023-07-24T07:36:42;14.63;;;13.18;;
67595;SDS011;54410;48.694;8.934;2023-07-24T07:39:08;22.00;;;19.77;;
67595;SDS011;54410;48.694;8.934;2023-07-24T07:41:34;47.35;;;44.33;;
67595;SDS011;54410;48.694;8.934;2023-07-24T07:44:00;114.30;;;106.05;;
67595;SDS011;54410;48.694;8.934;2023-07-24T07:46:25;96.35;;;88.63;;
67595;SDS011;54410;48.694;8.934;2023-07-24T07:48:51;32.58;;;30.17;;
67595;SDS011;54410;48.694;8.934;2023-07-24T07:51:17;112.50;;;104.40;;
67595;SDS011;54410;48.694;8.934;2023-07-24T07:53:43;101.78;;;95.32;;
67595;SDS011;54410;48.694;8.934;2023-07-24T07:56:09;146.07;;;138.52;;
67595;SDS011;54410;48.694;8.934;2023-07-24T07:58:35;213.73;;;198.88;;
67595;SDS011;54410;48.694;8.934;2023-07-24T08:01:04;246.75;;;230.30;;
67595;SDS011;54410;48.694;8.934;2023-07-24T08:03:30;300.00;;;280.52;;
67595;SDS011;54410;48.694;8.934;2023-07-24T08:05:56;47.15;;;44.47;;
67595;SDS011;54410;48.694;8.934;2023-07-24T08:08:23;88.15;;;81.60;;
67595;SDS011;54410;48.694;8.934;2023-07-24T08:10:48;101.78;;;93.88;;
67595;SDS011;54410;48.694;8.934;2023-07-24T08:13:14;81.85;;;75.20;;
67595;SDS011;54410;48.694;8.934;2023-07-24T08:15:40;63.70;;;58.75;;
67595;SDS011;54410;48.694;8.934;2023-07-24T08:18:06;59.40;;;53.63;;
67595;SDS011;54410;48.694;8.934;2023-07-24T08:20:35;15.15;;;13.48;;
67595;SDS011;54410;48.694;8.934;2023-07-24T08:23:01;13.00;;;11.73;;
67595;SDS011;54410;48.694;8.934;2023-07-24T08:25:27;83.03;;;75.53;;
67595;SDS011;54410;48.694;8.934;2023-07-24T08:27:52;96.65;;;88.05;;
67595;SDS011;54410;48.694;8.934;2023-07-24T08:30:18;67.10;;;60.88;;
67595;SDS011;54410;48.694;8.934;2023-07-24T08:32:44;70.68;;;63.63;;
67595;SDS011;54410;48.694;8.934;2023-07-24T08:35:10;10.88;;;8.45;;
67595;SDS011;54410;48.694;8.934;2023-07-24T08:37:36;10.77;;;8.13;;
67595;SDS011;54410;48.694;8.934;2023-07-24T08:40:02;26.67;;;24.30;;
67595;SDS011;54410;48.694;8.934;2023-07-24T08:42:28;8.73;;;7.85;;
67595;SDS011;54410;48.694;8.934;2023-07-24T08:44:55;43.70;;;39.72;;
67595;SDS011;54410;48.694;8.934;2023-07-24T08:47:21;8.65;;;7.55;;
67595;SDS011;54410;48.694;8.934;2023-07-24T08:49:48;9.48;;;8.43;;
67595;SDS011;54410;48.694;8.934;2023-07-24T08:52:15;26.95;;;24.67;;
67595;SDS011;54410;48.694;8.934;2023-07-24T08:54:41;9.60;;;8.55;;
67595;SDS011;54410;48.694;8.934;2023-07-24T08:57:07;16.20;;;15.10;;
67595;SDS011;54410;48.694;8.934;2023-07-24T08:59:34;8.73;;;7.97;;
67595;SDS011;54410;48.694;8.934;2023-07-24T09:02:00;17.45;;;16.23;;
67595;SDS011;54410;48.694;8.934;2023-07-24T09:04:26;14.30;;;13.10;;
67595;SDS011;54410;48.694;8.934;2023-07-24T09:06:52;11.55;;;10.40;;
67595;SDS011;54410;48.694;8.934;2023-07-24T09:09:18;10.40;;;9.50;;
67595;SDS011;54410;48.694;8.934;2023-07-24T09:11:51;9.68;;;7.60;;
67595;SDS011;54410;48.694;8.934;2023-07-24T09:14:23;9.32;;;6.97;;
67595;SDS011;54410;48.694;8.934;2023-07-24T09:16:49;8.65;;;6.65;;
67595;SDS011;54410;48.694;8.934;2023-07-24T09:19:21;6.32;;;5.53;;
67595;SDS011;54410;48.694;8.934;2023-07-24T09:21:46;6.15;;;5.55;;
67595;SDS011;54410;48.694;8.934;2023-07-24T09:24:13;5.97;;;5.35;;
67595;SDS011;54410;48.694;8.934;2023-07-24T09:26:52;7.95;;;5.85;;
67595;SDS011;54410;48.694;8.934;2023-07-24T09:29:18;8.10;;;7.30;;
67595;SDS011;54410;48.694;8.934;2023-07-24T09:31:45;7.45;;;6.85;;
67595;SDS011;54410;48.694;8.934;2023-07-24T09:34:17;7.72;;;7.00;;
67595;SDS011;54410;48.694;8.934;2023-07-24T09:36:44;7.18;;;6.35;;
67595;SDS011;54410;48.694;8.934;2023-07-24T09:39:10;7.88;;;6.95;;
67595;SDS011;54410;48.694;8.934;2023-07-24T09:41:37;8.13;;;7.35;;
67595;SDS011;54410;48.694;8.934;2023-07-24T09:44:03;9.77;;;9.13;;
67595;SDS011;54410;48.694;8.934;2023-07-24T09:46:29;9.60;;;8.63;;
67595;SDS011;54410;48.694;8.934;2023-07-24T09:48:56;10.25;;;7.50;;
67595;SDS011;54410;48.694;8.934;2023-07-24T09:51:22;9.55;;;8.75;;
67595;SDS011;54410;48.694;8.934;2023-07-24T09:53:58;9.38;;;8.57;;
67595;SDS011;54410;48.694;8.934;2023-07-24T09:56:35;9.40;;;7.90;;
67595;SDS011;54410;48.694;8.934;2023-07-24T09:59:02;12.13;;;11.23;;
67595;SDS011;54410;48.694;8.934;2023-07-24T10:01:27;14.10;;;13.00;;
67595;SDS011;54410;48.694;8.934;2023-07-24T10:03:53;12.13;;;10.98;;
67595;SDS011;54410;48.694;8.934;2023-07-24T10:06:19;15.90;;;14.60;;
67595;SDS011;54410;48.694;8.934;2023-07-24T10:08:46;10.90;;;9.82;;
67595;SDS011;54410;48.694;8.934;2023-07-24T10:11:12;8.00;;;7.25;;
67595;SDS011;54410;48.694;8.934;2023-07-24T10:13:39;9.93;;;6.85;;
67595;SDS011;54410;48.694;8.934;2023-07-24T10:16:05;9.82;;;6.85;;
67595;SDS011;54410;48.694;8.934;2023-07-24T10:18:32;7.90;;;7.10;;
67595;SDS011;54410;48.694;8.934;2023-07-24T10:21:03;9.55;;;8.52;;
67595;SDS011;54410;48.694;8.934;2023-07-24T10:23:29;24.77;;;23.30;;
67595;SDS011;54410;48.694;8.934;2023-07-24T10:25:55;19.88;;;18.35;;
67595;SDS011;54410;48.694;8.934;2023-07-24T10:28:29;100.28;;;92.80;;
67595;SDS011;54410;48.694;8.934;2023-07-24T10:30:56;10.18;;;8.20;;
67595;SDS011;54410;48.694;8.934;2023-07-24T10:33:22;13.50;;;11.90;;
67595;SDS011;54410;48.694;8.934;2023-07-24T10:35:52;24.27;;;22.38;;
67595;SDS011;54410;48.694;8.934;2023-07-24T10:38:19;39.60;;;35.95;;
67595;SDS011;54410;48.694;8.934;2023-07-24T10:40:46;21.08;;;19.20;;
67595;SDS011;54410;48.694;8.934;2023-07-24T10:43:14;14.05;;;9.38;;
67595;SDS011;54410;48.694;8.934;2023-07-24T10:46:01;11.90;;;10.82;;
67595;SDS011;54410;48.694;8.934;2023-07-24T10:48:27;8.57;;;6.75;;
67595;SDS011;54410;48.694;8.934;2023-07-24T10:50:53;12.23;;;7.60;;
67595;SDS011;54410;48.694;8.934;2023-07-24T10:53:20;8.40;;;6.63;;
67595;SDS011;54410;48.694;8.934;2023-07-24T10:55:47;11.65;;;8.55;;
67595;SDS011;54410;48.694;8.934;2023-07-24T10:58:13;11.13;;;6.70;;
67595;SDS011;54410;48.694;8.934;2023-07-24T11:00:40;11.45;;;7.07;;
67595;SDS011;54410;48.694;8.934;2023-07-24T11:03:12;8.18;;;6.28;;
67595;SDS011;54410;48.694;8.934;2023-07-24T11:05:41;10.70;;;6.80;;
67595;SDS011;54410;48.694;8.934;2023-07-24T11:08:09;11.60;;;6.97;;
67595;SDS011;54410;48.694;8.934;2023-07-24T11:10:43;11.95;;;7.30;;
67595;SDS011;54410;48.694;8.934;2023-07-24T11:13:17;9.93;;;6.35;;
67595;SDS011;54410;48.694;8.934;2023-07-24T11:15:43;9.45;;;6.63;;
67595;SDS011;54410;48.694;8.934;2023-07-24T11:18:09;12.43;;;7.00;;
67595;SDS011;54410;48.694;8.934;2023-07-24T11:20:36;10.68;;;8.43;;
67595;SDS011;54410;48.694;8.934;2023-07-24T11:23:03;8.13;;;6.45;;
67595;SDS011;54410;48.694;8.934;2023-07-24T11:25:29;10.45;;;7.20;;
67595;SDS011;54410;48.694;8.934;2023-07-24T11:27:55;11.25;;;7.22;;
67595;SDS011;54410;48.694;8.934;2023-07-24T11:30:21;11.77;;;8.68;;
67595;SDS011;54410;48.694;8.934;2023-07-24T11:32:48;20.17;;;18.60;;
67595;SDS011;54410;48.694;8.934;2023-07-24T11:35:14;81.28;;;75.90;;
67595;SDS011;54410;48.694;8.934;2023-07-24T11:37:40;103.63;;;96.03;;
67595;SDS011;54410;48.694;8.934;2023-07-24T11:40:07;39.60;;;37.00;;
67595;SDS011;54410;48.694;8.934;2023-07-24T11:42:39;18.38;;;17.05;;
67595;SDS011;54410;48.694;8.934;2023-07-24T11:45:07;9.55;;;8.02;;
67595;SDS011;54410;48.694;8.934;2023-07-24T11:47:43;9.50;;;8.63;;
67595;SDS011;54410;48.694;8.934;2023-07-24T11:50:15;12.38;;;11.32;;
67595;SDS011;54410;48.694;8.934;2023-07-24T11:52:42;11.13;;;10.20;;
67595;SDS011;54410;48.694;8.934;2023-07-24T11:55:11;12.45;;;11.35;;
67595;SDS011;54410;48.694;8.934;2023-07-24T11:57:38;52.17;;;49.35;;
67595;SDS011;54410;48.694;8.934;2023-07-24T12:00:04;58.17;;;54.50;;
67595;SDS011;54410;48.694;8.934;2023-07-24T12:02:32;35.28;;;32.72;;
67595;SDS011;54410;48.694;8.934;2023-07-24T12:04:58;29.65;;;27.83;;
67595;SDS011;54410;48.694;8.934;2023-07-24T12:07:34;16.10;;;15.00;;
67595;SDS011;54410;48.694;8.934;2023-07-24T12:10:01;11.48;;;10.45;;
67595;SDS011;54410;48.694;8.934;2023-07-24T12:12:37;11.00;;;9.90;;
67595;SDS011;54410;48.694;8.934;2023-07-24T12:15:03;9.30;;;8.48;;
67595;SDS011;54410;48.694;8.934;2023-07-24T12:17:29;12.90;;;8.35;;
67595;SDS011;54410;48.694;8.934;2023-07-24T12:19:55;9.90;;;9.00;;
67595;SDS011;54410;48.694;8.934;2023-07-24T12:22:20;7.88;;;7.13;;
67595;SDS011;54410;48.694;8.934;2023-07-24T12:24:47;6.43;;;5.78;;
67595;SDS011;54410;48.694;8.934;2023-07-24T12:27:12;6.47;;;5.57;;
67595;SDS011;54410;48.694;8.934;2023-07-24T12:29:38;7.32;;;5.70;;
67595;SDS011;54410;48.694;8.934;2023-07-24T12:32:04;7.70;;;6.43;;
67595;SDS011;54410;48.694;8.934;2023-07-24T12:34:31;7.30;;;5.38;;
67595;SDS011;54410;48.694;8.934;2023-07-24T12:36:57;7.57;;;6.15;;
67595;SDS011;54410;48.694;8.934;2023-07-24T12:39:23;6.00;;;4.85;;
67595;SDS011;54410;48.694;8.934;2023-07-24T12:41:49;5.97;;;5.03;;
67595;SDS011;54410;48.694;8.934;2023-07-24T12:44:17;6.85;;;5.50;;
67595;SDS011;54410;48.694;8.934;2023-07-24T12:46:43;6.03;;;5.15;;
67595;SDS011;54410;48.694;8.934;2023-07-24T12:49:09;5.68;;;4.85;;
67595;SDS011;54410;48.694;8.934;2023-07-24T12:51:35;5.80;;;4.82;;
67595;SDS011;54410;48.694;8.934;2023-07-24T12:54:01;5.75;;;5.15;;
67595;SDS011;54410;48.694;8.934;2023-07-24T12:56:27;5.97;;;4.72;;
67595;SDS011;54410;48.694;8.934;2023-07-24T12:58:53;4.95;;;4.45;;
67595;SDS011;54410;48.694;8.934;2023-07-24T13:01:19;4.82;;;4.25;;
67595;SDS011;54410;48.694;8.934;2023-07-24T13:03:45;4.57;;;3.97;;
67595;SDS011;54410;48.694;8.934;2023-07-24T13:06:11;5.50;;;4.43;;
67595;SDS011;54410;48.694;8.934;2023-07-24T13:08:36;5.03;;;4.13;;
67595;SDS011;54410;48.694;8.934;2023-07-24T13:11:02;6.32;;;4.85;;
67595;SDS011;54410;48.694;8.934;2023-07-24T13:13:28;5.30;;;4.07;;
67595;SDS011;54410;48.694;8.934;2023-07-24T13:15:55;4.50;;;3.75;;
67595;SDS011;54410;48.694;8.934;2023-07-24T13:18:21;4.85;;;4.35;;
67595;SDS011;54410;48.694;8.934;2023-07-24T13:20:47;4.72;;;3.88;;
67595;SDS011;54410;48.694;8.934;2023-07-24T13:23:13;5.22;;;4.47;;
67595;SDS011;54410;48.694;8.934;2023-07-24T13:25:39;5.28;;;3.60;;
67595;SDS011;54410;48.694;8.934;2023-07-24T13:28:05;6.45;;;4.53;;
67595;SDS011;54410;48.694;8.934;2023-07-24T13:30:31;5.30;;;4.38;;
67595;SDS011;54410;48.694;8.934;2023-07-24T13:32:57;5.03;;;4.53;;
67595;SDS011;54410;48.694;8.934;2023-07-24T13:35:23;4.57;;;4.00;;
67595;SDS011;54410;48.694;8.934;2023-07-24T13:37:49;5.20;;;3.95;;
67595;SDS011;54410;48.694;8.934;2023-07-24T13:40:15;5.47;;;3.90;;
67595;SDS011;54410;48.694;8.934;2023-07-24T13:42:41;6.63;;;4.55;;
67595;SDS011;54410;48.694;8.934;2023-07-24T13:45:07;4.68;;;4.18;;
67595;SDS011;54410;48.694;8.934;2023-07-24T13:47:33;5.28;;;4.68;;
67595;SDS011;54410;48.694;8.934;2023-07-24T13:49:59;4.90;;;4.35;;
67595;SDS011;54410;48.694;8.934;2023-07-24T13:52:28;6.90;;;4.30;;
67595;SDS011;54410;48.694;8.934;2023-07-24T13:54:54;4.82;;;3.78;;
67595;SDS011;54410;48.694;8.934;2023-07-24T13:57:20;7.40;;;4.05;;
67595;SDS011;54410;48.694;8.934;2023-07-24T13:59:46;5.20;;;4.30;;
67595;SDS011;54410;48.694;8.934;2023-07-24T14:02:12;4.97;;;4.00;;
67595;SDS011;54410;48.694;8.934;2023-07-24T14:04:38;6.38;;;4.30;;
67595;SDS011;54410;48.694;8.934;2023-07-24T14:07:04;4.20;;;3.80;;
67595;SDS011;54410;48.694;8.934;2023-07-24T14:09:30;4.82;;;4.03;;
67595;SDS011;54410;48.694;8.934;2023-07-24T14:11:58;5.53;;;4.60;;
67595;SDS011;54410;48.694;8.934;2023-07-24T14:14:24;4.90;;;4.40;;
67595;SDS011;54410;48.694;8.934;2023-07-24T14:16:50;4.80;;;4.30;;
67595;SDS011;54410;48.694;8.934;2023-07-24T14:19:16;5.63;;;3.63;;
67595;SDS011;54410;48.694;8.934;2023-07-24T14:21:42;5.30;;;4.05;;
67595;SDS011;54410;48.694;8.934;2023-07-24T14:24:08;4.88;;;4.10;;
67595;SDS011;54410;48.694;8.934;2023-07-24T14:26:34;4.28;;;3.88;;
67595;SDS011;54410;48.694;8.934;2023-07-24T14:29:02;5.05;;;3.47;;
67595;SDS011;54410;48.694;8.934;2023-07-24T14:31:28;4.10;;;3.63;;